Time;durP1;ratioP1;P1;durP2;ratioP2;P2;SDS_P1;SDS_P2;PMS_P1;PMS_P2;Temp;Humidity;BMP_temperature;BMP_pressure;BME280_temperature;BME280_humidity;BME280_pressure;Samples;Min_cycle;Max_cycle;Signal;HPM_P1;HPM_P2
2024/03/10 00:01:44;;;;;;;;;;;;;;;20.04;40.43;93856.69;10512765;28;1878;-64
2024/03/10 00:06:45;;;;;;;;;;;;;;;20.02;40.41;93853.59;10515571;28;1974;-64
2024/03/10 00:11:45;;;;;;;;;;;;;;;20.00;40.61;93855.75;10509289;28;2852;-62
2024/03/10 00:16:45;;;;;;;;;;;;;;;19.98;40.62;93848.19;10507287;28;1994;-64
2024/03/10 00:21:46;;;;;;;;;;;;;;;19.96;40.54;93839.84;10498453;28;2088;-63
2024/03/10 00:26:46;;;;;;;;;;;;;;;19.95;40.71;93840.91;10508576;28;1972;-65
2024/03/10 00:31:46;;;;;;;;;;;;;;;19.94;40.65;93841.25;10510350;28;2033;-62
2024/03/10 00:36:46;;;;;;;;;;;;;;;19.91;40.56;93847.91;10511756;28;2099;-63
2024/03/10 00:41:47;;;;;;;;;;;;;;;19.91;40.79;93849.75;10502849;28;2109;-63
2024/03/10 00:46:47;;;;;;;;;;;;;;;19.90;40.80;93848.22;10508975;28;2183;-64
2024/03/10 00:51:48;;;;;;;;;;;;;;;19.86;40.79;93832.31;10506630;28;2116;-62
2024/03/10 00:56:48;;;;;;;;;;;;;;;19.87;40.73;93836.47;10521890;28;2072;-63
2024/03/10 01:01:48;;;;;;;;;;;;;;;19.85;40.80;93829.97;10504976;28;3058;-64
2024/03/10 01:06:49;;;;;;;;;;;;;;;19.84;40.61;93829.22;10505182;28;1906;-64
2024/03/10 01:11:50;;;;;;;;;;;;;;;19.82;40.70;93823.50;10507044;28;2036;-64
2024/03/10 01:16:50;;;;;;;;;;;;;;;19.81;40.72;93818.53;10498498;28;2041;-64
2024/03/10 01:21:51;;;;;;;;;;;;;;;19.80;40.97;93820.41;10503162;28;2279;-63
2024/03/10 01:26:51;;;;;;;;;;;;;;;19.78;41.00;93819.19;10505852;28;1993;-64
2024/03/10 01:31:51;;;;;;;;;;;;;;;19.77;40.81;93799.22;10508715;28;1903;-64
2024/03/10 01:36:52;;;;;;;;;;;;;;;19.75;40.86;93796.91;10504590;28;2123;-62
2024/03/10 01:41:57;;;;;;;;;;;;;;;19.75;40.95;93785.63;10497216;28;1895;-64
2024/03/10 01:46:57;;;;;;;;;;;;;;;19.74;40.87;93794.63;10507415;28;1975;-60
2024/03/10 01:51:57;;;;;;;;;;;;;;;19.72;40.83;93779.13;10507249;28;2778;-64
2024/03/10 01:56:58;;;;;;;;;;;;;;;19.72;41.01;93770.50;10511207;28;1954;-62
2024/03/10 02:01:58;;;;;;;;;;;;;;;19.70;40.98;93773.41;10504866;28;1899;-64
2024/03/10 02:06:58;;;;;;;;;;;;;;;19.69;40.86;93752.72;10506555;28;1988;-63
2024/03/10 02:11:59;;;;;;;;;;;;;;;19.67;41.05;93744.38;10508633;28;1982;-64
2024/03/10 02:16:59;;;;;;;;;;;;;;;19.66;40.91;93734.97;10507215;28;2000;-63
2024/03/10 02:21:59;;;;;;;;;;;;;;;19.65;40.94;93736.03;10507647;28;1848;-64
2024/03/10 02:27:00;;;;;;;;;;;;;;;19.65;40.99;93736.03;10507068;28;1905;-62
2024/03/10 02:47:59;;;;;;;;;;;;;;;19.60;41.17;93725.72;10504810;28;2864;-64
2024/03/10 02:53:00;;;;;;;;;;;;;;;19.61;41.27;93729.88;10508677;28;1921;-63
2024/03/10 02:58:01;;;;;;;;;;;;;;;19.60;41.46;93713.31;10507517;28;1882;-64
2024/03/10 03:03:03;;;;;;;;;;;;;;;19.59;41.58;93711.78;10503165;28;2030;-62
2024/03/10 03:08:03;;;;;;;;;;;;;;;19.58;41.84;93712.88;10496005;28;2208;-64
2024/03/10 03:13:04;;;;;;;;;;;;;;;19.58;42.15;93707.59;10495592;28;1971;-63
2024/03/10 03:18:04;;;;;;;;;;;;;;;19.57;42.08;93697.41;10505872;28;2021;-65
2024/03/10 03:23:04;;;;;;;;;;;;;;;19.55;42.02;93692.47;10504554;28;1994;-64
2024/03/10 03:28:06;;;;;;;;;;;;;;;19.54;42.27;93671.78;10502305;28;2018;-64
2024/03/10 03:33:09;;;;;;;;;;;;;;;19.51;42.27;93670.56;10513937;28;3020;-65
2024/03/10 03:38:09;;;;;;;;;;;;;;;19.50;42.43;93666.38;10505357;28;2012;-63
2024/03/10 03:43:10;;;;;;;;;;;;;;;19.48;42.21;93671.94;10514453;28;1921;-63
2024/03/10 03:48:10;;;;;;;;;;;;;;;19.45;42.34;93662.06;10513966;28;1915;-63
2024/03/10 03:53:11;;;;;;;;;;;;;;;19.45;42.31;93667.31;10512206;28;1931;-62
2024/03/10 03:58:11;;;;;;;;;;;;;;;19.44;42.36;93655.28;10515246;28;1975;-63
2024/03/10 04:03:11;;;;;;;;;;;;;;;19.43;42.24;93648.47;10506261;28;2026;-64
2024/03/10 04:08:12;;;;;;;;;;;;;;;19.39;42.08;93642.31;10506465;28;2026;-63
2024/03/10 04:13:12;;;;;;;;;;;;;;;19.42;42.04;93646.16;10508704;28;2971;-62
2024/03/10 04:18:13;;;;;;;;;;;;;;;19.39;42.06;93644.94;10505429;28;1900;-62
2024/03/10 04:23:13;;;;;;;;;;;;;;;19.38;42.19;93635.53;10505050;28;2005;-64
2024/03/10 04:28:13;;;;;;;;;;;;;;;19.38;41.95;93626.88;10508836;28;1921;-63
2024/03/10 04:33:14;;;;;;;;;;;;;;;19.36;41.91;93632.44;10505946;28;1915;-62
2024/03/10 04:38:14;;;;;;;;;;;;;;;19.35;42.08;93604.63;10491736;28;6196;-63
2024/03/10 04:43:16;;;;;;;;;;;;;;;19.34;41.88;93592.59;10503354;28;2081;-62
2024/03/10 04:48:16;;;;;;;;;;;;;;;19.33;41.87;93591.03;10503540;28;2053;-64
2024/03/10 04:53:16;;;;;;;;;;;;;;;19.32;41.91;93573.72;10510222;28;1962;-64
2024/03/10 04:58:17;;;;;;;;;;;;;;;19.31;41.73;93561.66;10510461;28;1975;-64
2024/03/10 05:03:17;;;;;;;;;;;;;;;19.32;41.70;93554.53;10506553;28;1970;-64
2024/03/10 05:08:18;;;;;;;;;;;;;;;19.30;41.93;93536.47;10509212;28;2013;-64
2024/03/10 05:13:19;;;;;;;;;;;;;;;19.31;41.92;93516.22;10510658;28;2080;-64
2024/03/10 05:18:19;;;;;;;;;;;;;;;19.36;41.63;93501.09;10503669;28;2041;-64
2024/03/10 05:23:19;;;;;;;;;;;;;;;19.43;41.32;93532.88;10508807;28;1991;-63
2024/03/10 05:28:19;;;;;;;;;;;;;;;19.51;40.95;93535.75;10497507;28;2029;-64
2024/03/10 05:33:20;;;;;;;;;;;;;;;19.56;40.55;93556.63;10509015;28;2891;-64
2024/03/10 05:38:21;;;;;;;;;;;;;;;19.60;39.86;93560.88;10502437;28;1913;-64
2024/03/10 05:43:22;;;;;;;;;;;;;;;19.66;39.82;93558.88;10487466;28;2072;-64
2024/03/10 05:48:22;;;;;;;;;;;;;;;19.69;39.36;93552.94;10508599;28;1917;-64
2024/03/10 05:53:22;;;;;;;;;;;;;;;19.74;39.48;93564.03;10507072;28;1995;-64
2024/03/10 05:58:23;;;;;;;;;;;;;;;19.78;39.33;93569.44;10506075;28;1864;-63
2024/03/10 06:03:23;;;;;;;;;;;;;;;19.80;39.45;93560.16;10508764;28;1935;-64
2024/03/10 06:08:23;;;;;;;;;;;;;;;19.84;39.34;93570.78;10509263;28;2204;-64
2024/03/10 06:13:24;;;;;;;;;;;;;;;19.88;39.14;93569.06;10505222;28;2050;-64
2024/03/10 06:18:31;;;;;;;;;;;;;;;19.93;39.09;93574.09;10500338;28;1911;-64
2024/03/10 06:28:51;;;;;;;;;;;;;;;19.96;39.14;93565.59;10504936;28;2931;-64
2024/03/10 06:33:51;;;;;;;;;;;;;;;20.00;38.68;93564.63;10504134;28;1933;-64
2024/03/10 06:38:52;;;;;;;;;;;;;;;20.02;38.50;93543.25;10499651;28;2152;-63
2024/03/10 06:43:54;;;;;;;;;;;;;;;20.04;38.89;93551.59;10499621;28;2117;-64
2024/03/10 06:48:55;;;;;;;;;;;;;;;20.06;38.95;93558.09;10499862;28;1933;-63
2024/03/10 06:53:55;;;;;;;;;;;;;;;20.11;38.42;93568.38;10501806;28;1887;-64
2024/03/10 06:58:56;;;;;;;;;;;;;;;20.13;38.78;93575.97;10497442;28;1893;-63
2024/03/10 07:03:56;;;;;;;;;;;;;;;20.15;38.68;93555.38;10512316;28;2007;-64
2024/03/10 07:08:56;;;;;;;;;;;;;;;20.18;38.51;93558.13;10507451;28;1875;-63
2024/03/10 07:13:57;;;;;;;;;;;;;;;20.21;38.46;93556.75;10506575;28;2240;-63
2024/03/10 07:18:57;;;;;;;;;;;;;;;20.22;38.82;93534.59;10510243;28;2268;-63
2024/03/10 07:23:57;;;;;;;;;;;;;;;20.23;38.58;93547.44;10506344;28;2110;-63
2024/03/10 07:28:58;;;;;;;;;;;;;;;20.23;38.72;93531.66;10507278;28;2075;-64
2024/03/10 07:33:58;;;;;;;;;;;;;;;20.30;38.56;93523.22;10505940;28;1927;-64
2024/03/10 07:38:59;;;;;;;;;;;;;;;20.32;38.39;93518.41;10511394;28;1843;-63
2024/03/10 07:43:59;;;;;;;;;;;;;;;20.33;38.02;93508.66;10512629;28;2097;-64
2024/03/10 07:49:02;;;;;;;;;;;;;;;20.34;38.28;93500.44;10512115;28;2166;-63
2024/03/10 07:54:04;;;;;;;;;;;;;;;20.35;38.22;93504.63;10508843;28;1871;-63
2024/03/10 07:59:04;;;;;;;;;;;;;;;20.36;38.31;93497.50;10508285;28;1937;-64
2024/03/10 08:04:04;;;;;;;;;;;;;;;20.38;37.72;93496.06;10509837;28;1962;-63
2024/03/10 08:09:04;;;;;;;;;;;;;;;20.39;38.22;93497.59;10507011;28;2108;-63
2024/03/10 08:14:05;;;;;;;;;;;;;;;20.42;38.31;93489.06;10510440;28;2116;-64
2024/03/10 08:19:06;;;;;;;;;;;;;;;20.45;38.17;93506.81;10512330;28;1973;-64
2024/03/10 08:24:09;;;;;;;;;;;;;;;20.47;38.42;93517.78;10506357;28;2056;-63
2024/03/10 08:29:11;;;;;;;;;;;;;;;20.48;38.97;93511.47;10507111;28;2225;-63
2024/03/10 08:34:11;;;;;;;;;;;;;;;20.51;38.68;93510.78;10508343;28;2065;-63
2024/03/10 08:39:16;;;;;;;;;;;;;;;20.52;38.85;93503.66;10504143;28;2108;-63
2024/03/10 08:44:16;;;;;;;;;;;;;;;20.56;38.02;93501.91;10505325;28;1913;-63
2024/03/10 08:49:17;;;;;;;;;;;;;;;20.56;38.69;93488.75;10507236;28;1923;-63
2024/03/10 08:54:17;;;;;;;;;;;;;;;20.58;38.24;93476.81;10505919;28;2132;-64
2024/03/10 08:59:17;;;;;;;;;;;;;;;20.60;38.29;93481.75;10509696;28;2374;-63
2024/03/10 09:04:18;;;;;;;;;;;;;;;20.63;38.05;93473.22;10506956;28;2203;-64
2024/03/10 09:09:19;;;;;;;;;;;;;;;20.64;38.06;93464.97;10498544;28;1866;-64
2024/03/10 09:14:19;;;;;;;;;;;;;;;20.67;38.21;93460.94;10507790;28;2101;-63
2024/03/10 09:19:19;;;;;;;;;;;;;;;20.69;37.91;93446.31;10511679;28;2033;-63
2024/03/10 09:24:20;;;;;;;;;;;;;;;20.70;38.00;93445.22;10503991;28;2019;-63
2024/03/10 09:29:21;;;;;;;;;;;;;;;20.70;38.46;93439.97;10501623;28;1852;-63
2024/03/10 09:34:24;;;;;;;;;;;;;;;20.71;38.70;93422.31;10499596;28;2097;-62
2024/03/10 09:39:25;;;;;;;;;;;;;;;20.72;38.16;93432.50;10491330;28;2061;-64
2024/03/10 09:44:25;;;;;;;;;;;;;;;20.74;38.10;93437.44;10505533;28;2061;-62
2024/03/10 09:49:25;;;;;;;;;;;;;;;20.75;38.00;93441.63;10505670;28;1941;-62
2024/03/10 09:54:25;;;;;;;;;;;;;;;20.76;38.34;93437.88;10504974;28;1975;-62
2024/03/10 09:59:37;;;;;;;;;;;;;;;20.77;38.04;93442.81;10509267;28;2313;-63
2024/03/10 10:04:38;;;;;;;;;;;;;;;20.78;38.49;93449.63;10504378;28;1969;-63
2024/03/10 10:09:38;;;;;;;;;;;;;;;20.81;37.90;93435.03;10504541;28;2186;-63
2024/03/10 10:14:41;;;;;;;;;;;;;;;20.79;38.21;93430.06;10508881;28;1942;-63
2024/03/10 10:19:41;;;;;;;;;;;;;;;20.82;38.19;93429.44;10508875;28;1898;-63
2024/03/10 10:24:42;;;;;;;;;;;;;;;20.86;38.14;93425.03;10500897;28;2030;-64
2024/03/10 10:29:48;;;;;;;;;;;;;;;20.87;38.18;93437.13;10502451;28;1978;-63
2024/03/10 10:34:52;;;;;;;;;;;;;;;20.87;38.86;93429.22;10509927;28;1867;-63
2024/03/10 10:39:53;;;;;;;;;;;;;;;20.90;37.93;93430.41;10512930;28;1906;-63
2024/03/10 10:44:54;;;;;;;;;;;;;;;20.91;38.30;93416.16;10508970;28;2018;-63
2024/03/10 10:49:56;;;;;;;;;;;;;;;20.91;38.43;93413.53;10508593;28;2025;-63
2024/03/10 10:54:56;;;;;;;;;;;;;;;20.91;38.59;93411.66;10513704;28;2773;-63
2024/03/10 10:59:57;;;;;;;;;;;;;;;20.95;38.40;93404.63;10512405;28;1952;-62
2024/03/10 11:05:00;;;;;;;;;;;;;;;20.99;38.69;93396.81;10511110;28;2025;-63
2024/03/10 11:10:20;;;;;;;;;;;;;;;21.00;38.67;93393.84;10513295;28;2260;-63
2024/03/10 11:15:20;;;;;;;;;;;;;;;21.03;38.59;93393.22;10508919;28;1940;-63
2024/03/10 11:20:22;;;;;;;;;;;;;;;21.04;38.45;93376.31;10510573;28;1919;-64
2024/03/10 11:25:22;;;;;;;;;;;;;;;21.03;38.61;93382.69;10519905;28;1962;-64
2024/03/10 11:30:40;;;;;;;;;;;;;;;21.06;38.46;93376.75;10508681;28;2016;-64
2024/03/10 11:35:41;;;;;;;;;;;;;;;21.06;38.78;93371.47;10513557;28;1958;-64
2024/03/10 11:40:42;;;;;;;;;;;;;;;21.08;38.99;93357.22;10501782;28;1898;-64
2024/03/10 11:45:42;;;;;;;;;;;;;;;21.12;39.10;93340.44;10511963;28;2049;-63
2024/03/10 11:50:43;;;;;;;;;;;;;;;21.13;38.79;93341.16;10510517;28;2333;-64
2024/03/10 11:55:44;;;;;;;;;;;;;;;21.10;39.00;93328.69;10512337;28;2018;-63
2024/03/10 12:00:44;;;;;;;;;;;;;;;21.16;39.24;93325.47;10513212;28;2065;-63
2024/03/10 12:05:45;;;;;;;;;;;;;;;21.14;39.51;93337.44;10505812;28;2046;-64
2024/03/10 12:10:45;;;;;;;;;;;;;;;21.13;39.19;93336.69;10510265;28;2163;-63
2024/03/10 12:15:49;;;;;;;;;;;;;;;21.13;39.25;93333.25;10508600;28;2042;-63
2024/03/10 12:20:49;;;;;;;;;;;;;;;21.15;39.03;93336.34;10512682;28;1910;-64
2024/03/10 12:25:51;;;;;;;;;;;;;;;21.13;39.75;93346.44;10497987;28;2270;-63
2024/03/10 12:30:51;;;;;;;;;;;;;;;21.09;39.95;93335.81;10512199;28;2486;-63
2024/03/10 12:35:51;;;;;;;;;;;;;;;21.06;40.00;93318.06;10519443;28;1985;-63
2024/03/10 12:40:52;;;;;;;;;;;;;;;21.06;39.86;93313.53;10483426;28;1893;-63
2024/03/10 12:45:52;;;;;;;;;;;;;;;21.06;39.89;93318.06;10502328;28;2101;-63
2024/03/10 12:50:54;;;;;;;;;;;;;;;21.05;39.71;93305.97;10505007;28;2052;-63
2024/03/10 12:55:54;;;;;;;;;;;;;;;21.04;39.78;93297.28;10504216;28;2039;-63
2024/03/10 13:00:55;;;;;;;;;;;;;;;21.03;40.23;93282.59;10505887;28;2078;-64
2024/03/10 13:05:55;;;;;;;;;;;;;;;21.02;40.43;93280.28;10508658;28;2079;-63
2024/03/10 13:10:56;;;;;;;;;;;;;;;21.01;40.30;93263.72;10502659;28;2544;-64
2024/03/10 13:15:56;;;;;;;;;;;;;;;20.98;40.37;93248.56;10506729;28;1912;-63
2024/03/10 13:21:02;;;;;;;;;;;;;;;20.97;40.39;93247.06;10579368;27;1959;-63
2024/03/10 13:26:03;;;;;;;;;;;;;;;20.96;40.76;93232.34;10510711;28;2017;-63
2024/03/10 13:31:06;;;;;;;;;;;;;;;20.94;41.28;93231.13;10504157;28;2007;-63
2024/03/10 13:36:06;;;;;;;;;;;;;;;20.92;41.50;93223.56;10500474;28;1961;-63
2024/03/10 13:41:09;;;;;;;;;;;;;;;20.89;41.33;93226.91;10506894;28;2229;-63
2024/03/10 13:46:12;;;;;;;;;;;;;;;20.88;41.54;93214.03;10502764;28;2215;-63
2024/03/10 13:51:12;;;;;;;;;;;;;;;20.86;41.76;93197.81;10511732;28;2109;-63
2024/03/10 13:56:13;;;;;;;;;;;;;;;20.84;42.00;93184.22;10504542;28;1972;-63
2024/03/10 14:01:15;;;;;;;;;;;;;;;20.81;42.05;93187.53;10510584;28;2417;-62
2024/03/10 14:06:15;;;;;;;;;;;;;;;20.79;41.89;93176.59;10531818;27;1992;-63
2024/03/10 14:11:16;;;;;;;;;;;;;;;20.76;42.05;93170.13;10515974;28;1957;-63
2024/03/10 14:16:16;;;;;;;;;;;;;;;20.74;42.24;93158.38;10505212;28;2184;-62
2024/03/10 14:21:17;;;;;;;;;;;;;;;20.71;42.14;93159.81;10334852;28;1947;-63
2024/03/10 14:26:18;;;;;;;;;;;;;;;20.68;42.38;93160.50;10335574;28;1888;-62
2024/03/10 14:31:20;;;;;;;;;;;;;;;20.66;42.20;93152.16;10340718;27;1953;-62
2024/03/10 14:36:20;;;;;;;;;;;;;;;20.65;42.33;93144.63;10303505;28;1902;-62
2024/03/10 14:41:20;;;;;;;;;;;;;;;20.65;42.32;93139.34;10302005;28;2490;-63
2024/03/10 14:46:21;;;;;;;;;;;;;;;20.65;42.48;93128.81;10301148;28;2108;-64
2024/03/10 14:51:21;;;;;;;;;;;;;;;20.65;42.54;93145.38;10296402;28;1898;-64
2024/03/10 14:56:22;;;;;;;;;;;;;;;20.65;42.46;93141.97;10302572;28;1914;-65
2024/03/10 15:01:22;;;;;;;;;;;;;;;20.67;42.32;93142.41;10303596;28;2058;-65
2024/03/10 15:06:25;;;;;;;;;;;;;;;20.69;42.17;93148.09;10306505;28;1949;-62
2024/03/10 15:11:25;;;;;;;;;;;;;;;20.71;42.29;93154.53;10304850;28;2057;-63
2024/03/10 15:16:25;;;;;;;;;;;;;;;20.73;42.09;93151.59;10303156;28;1967;-63
2024/03/10 15:21:29;;;;;;;;;;;;;;;20.75;41.76;93168.56;10309009;28;1926;-63
2024/03/10 15:26:29;;;;;;;;;;;;;;;20.78;41.89;93162.66;10306896;28;2594;-63
2024/03/10 15:31:29;;;;;;;;;;;;;;;20.78;41.76;93160.00;10310147;28;2017;-63
2024/03/10 15:36:30;;;;;;;;;;;;;;;20.82;41.59;93165.34;10298161;28;2009;-63
2024/03/10 15:41:31;;;;;;;;;;;;;;;20.83;41.70;93169.53;10307940;28;2031;-63
2024/03/10 15:46:32;;;;;;;;;;;;;;;20.85;41.53;93157.56;10307697;28;1986;-63
2024/03/10 15:51:34;;;;;;;;;;;;;;;20.86;41.58;93163.59;10305990;28;2046;-63
2024/03/10 15:56:35;;;;;;;;;;;;;;;20.88;41.70;93166.66;10305673;28;1961;-63
2024/03/10 16:01:35;;;;;;;;;;;;;;;20.88;41.30;93170.06;10300846;28;1882;-64
2024/03/10 16:06:35;;;;;;;;;;;;;;;20.90;41.63;93173.13;10292987;28;2426;-63
2024/03/10 16:11:35;;;;;;;;;;;;;;;20.91;41.58;93181.78;10302017;28;2030;-63
2024/03/10 16:16:37;;;;;;;;;;;;;;;20.92;41.31;93176.19;10294975;28;2121;-64
2024/03/10 16:21:37;;;;;;;;;;;;;;;20.92;41.42;93175.41;10297950;28;2021;-64
2024/03/10 16:26:37;;;;;;;;;;;;;;;20.94;41.33;93189.78;10301002;28;2049;-64
2024/03/10 16:31:38;;;;;;;;;;;;;;;20.93;41.13;93190.13;10301550;28;2075;-63
2024/03/10 16:36:38;;;;;;;;;;;;;;;20.94;41.05;93181.88;10305139;28;1994;-63
2024/03/10 16:41:39;;;;;;;;;;;;;;;20.94;41.46;93184.50;10301398;28;2181;-61
2024/03/10 16:46:39;;;;;;;;;;;;;;;20.94;41.20;93181.09;10295365;28;2061;-63
2024/03/10 16:51:39;;;;;;;;;;;;;;;20.94;41.12;93200.31;10298778;28;2685;-63
2024/03/10 16:56:40;;;;;;;;;;;;;;;20.95;40.71;93208.97;10295903;28;1994;-64
2024/03/10 17:01:40;;;;;;;;;;;;;;;20.95;41.17;93217.66;10298228;28;2014;-63
2024/03/10 17:06:40;;;;;;;;;;;;;;;20.98;41.40;93235.41;10297293;28;1979;-63
2024/03/10 17:11:41;;;;;;;;;;;;;;;21.05;40.75;93269.88;10299880;28;1839;-65
2024/03/10 17:16:43;;;;;;;;;;;;;;;21.08;41.41;93324.50;10299048;28;2184;-64
2024/03/10 17:21:43;;;;;;;;;;;;;;;21.02;39.38;93339.00;10303094;28;2271;-64
2024/03/10 17:26:44;;;;;;;;;;;;;;;20.94;41.14;93347.78;10295519;28;1892;-64
2024/03/10 17:31:44;;;;;;;;;;;;;;;21.10;39.19;93373.47;10299140;28;2001;-65
2024/03/10 17:36:44;;;;;;;;;;;;;;;21.12;39.29;93398.38;10293359;28;2444;-67
2024/03/10 17:41:44;;;;;;;;;;;;;;;21.20;38.90;93418.56;10292464;28;1978;-61
2024/03/10 17:46:45;;;;;;;;;;;;;;;21.32;38.61;93438.84;10301771;28;1977;-63
2024/03/10 17:51:45;;;;;;;;;;;;;;;21.33;38.82;93443.00;10290735;28;2002;-65
2024/03/10 17:56:46;;;;;;;;;;;;;;;21.35;38.27;93467.91;10298871;28;2045;-62
2024/03/10 18:01:46;;;;;;;;;;;;;;;21.45;38.09;93477.25;10296912;28;1830;-63
2024/03/10 18:06:46;;;;;;;;;;;;;;;21.50;38.06;93506.00;10311033;28;2066;-69
2024/03/10 18:11:49;;;;;;;;;;;;;;;21.43;38.38;93542.69;10328987;28;1882;-63
2024/03/10 18:16:50;;;;;;;;;;;;;;;21.50;37.85;93551.56;10304962;28;2025;-73
2024/03/10 18:21:54;;;;;;;;;;;;;;;21.56;37.04;93562.66;10309032;28;1939;-66
2024/03/10 18:26:55;;;;;;;;;;;;;;;21.46;37.50;93578.91;10316832;28;2061;-67
2024/03/10 18:31:55;;;;;;;;;;;;;;;21.53;37.15;93594.97;10314301;28;2764;-68
2024/03/10 18:36:55;;;;;;;;;;;;;;;21.49;37.63;93596.72;10302456;28;2085;-71
2024/03/10 18:41:56;;;;;;;;;;;;;;;21.50;37.18;93599.03;10299700;28;2041;-72
2024/03/10 18:46:57;;;;;;;;;;;;;;;21.48;37.33;93598.59;10321038;28;1910;-71
2024/03/10 18:51:57;;;;;;;;;;;;;;;21.45;37.17;93615.03;10299792;28;2317;-70
2024/03/10 18:56:58;;;;;;;;;;;;;;;21.43;37.78;93632.31;10335950;28;2072;-70
2024/03/10 19:01:58;;;;;;;;;;;;;;;21.39;38.00;93628.81;10301445;28;2038;-68
2024/03/10 19:06:58;;;;;;;;;;;;;;;21.37;38.49;93591.47;10311423;28;1983;-69
2024/03/10 19:11:59;;;;;;;;;;;;;;;21.44;38.01;93573.22;10312266;28;2377;-69
2024/03/10 19:16:59;;;;;;;;;;;;;;;21.45;38.00;93569.50;10309135;28;1910;-69
2024/03/10 19:21:59;;;;;;;;;;;;;;;21.49;37.51;93600.13;10305795;28;2708;-72
2024/03/10 19:26:59;;;;;;;;;;;;;;;21.48;37.77;93609.13;10299296;28;2757;-69
2024/03/10 19:32:00;;;;;;;;;;;;;;;21.48;37.69;93632.84;10295605;28;2817;-70
2024/03/10 19:37:02;;;;;;;;;;;;;;;21.66;35.58;93614.94;10296020;28;3042;-70
2024/03/10 19:42:02;;;;;;;;;;;;;;;21.58;37.31;93621.09;10297229;28;2937;-71
2024/03/10 19:47:03;;;;;;;;;;;;;;;21.48;38.05;93635.50;10324237;28;2811;-68
2024/03/10 19:52:03;;;;;;;;;;;;;;;21.59;37.49;93667.47;10297569;28;2823;-69
2024/03/10 19:57:04;;;;;;;;;;;;;;;21.53;38.50;93700.41;10296323;28;2877;-70
2024/03/10 20:02:06;;;;;;;;;;;;;;;21.61;37.42;93697.69;10341939;28;2226;-70
2024/03/10 20:07:09;;;;;;;;;;;;;;;21.68;35.38;93712.94;10348428;28;2246;-68
2024/03/10 20:12:10;;;;;;;;;;;;;;;21.53;35.33;93722.28;10308382;28;2120;-69
2024/03/10 20:17:14;;;;;;;;;;;;;;;21.40;35.33;93739.16;10393654;28;2294;-69
2024/03/10 20:22:15;;;;;;;;;;;;;;;21.29;35.46;93748.56;10324765;28;1845;-71
2024/03/10 20:27:19;;;;;;;;;;;;;;;21.52;35.04;93764.75;10305185;28;1835;-70
2024/03/10 20:32:22;;;;;;;;;;;;;;;21.68;35.34;93770.94;10303510;28;1759;-70
2024/03/10 20:37:25;;;;;;;;;;;;;;;21.74;35.44;93796.78;10307326;28;2097;-71
2024/03/10 20:42:25;;;;;;;;;;;;;;;21.76;34.97;93814.94;10306167;28;1865;-70
2024/03/10 20:47:25;;;;;;;;;;;;;;;21.74;35.87;93848.78;10308273;28;1874;-71
2024/03/10 20:52:26;;;;;;;;;;;;;;;21.75;35.77;93855.56;10306109;28;2083;-70
2024/03/10 20:57:26;;;;;;;;;;;;;;;21.65;36.03;93854.13;10309209;28;2020;-70
2024/03/10 21:02:26;;;;;;;;;;;;;;;21.69;35.90;93875.34;10307394;28;2036;-72
2024/03/10 21:07:27;;;;;;;;;;;;;;;21.61;36.00;93890.16;10311383;28;1762;-70
2024/03/10 21:12:29;;;;;;;;;;;;;;;21.59;36.35;93923.19;10321038;28;2123;-71
2024/03/10 21:17:30;;;;;;;;;;;;;;;21.51;36.84;93916.91;10309494;28;1899;-71
2024/03/10 21:22:30;;;;;;;;;;;;;;;21.52;36.31;93933.47;10305462;28;1876;-70
2024/03/10 21:27:37;;;;;;;;;;;;;;;21.40;37.21;93943.97;10306698;28;2143;-72
2024/03/10 21:32:40;;;;;;;;;;;;;;;21.35;36.92;93949.44;10300775;28;1967;-70
2024/03/10 21:37:43;;;;;;;;;;;;;;;21.31;36.66;93951.94;10312453;28;1906;-70
2024/03/10 21:42:44;;;;;;;;;;;;;;;21.23;36.69;93954.63;10287643;28;1842;-71
2024/03/10 21:47:45;;;;;;;;;;;;;;;21.15;37.31;93944.91;10320311;28;2238;-70
2024/03/10 21:52:48;;;;;;;;;;;;;;;21.07;37.11;93964.94;10313044;28;1858;-71
2024/03/10 21:57:51;;;;;;;;;;;;;;;21.00;37.25;93980.44;10296883;28;2005;-72
2024/03/10 22:02:53;;;;;;;;;;;;;;;20.96;37.05;93997.97;10313000;28;1959;-70
2024/03/10 22:07:56;;;;;;;;;;;;;;;20.89;37.51;94009.03;10338611;28;1846;-70
2024/03/10 22:12:56;;;;;;;;;;;;;;;20.85;37.72;94000.22;10343575;28;1835;-69
2024/03/10 22:17:56;;;;;;;;;;;;;;;20.80;37.57;94021.44;10312162;28;2033;-69
2024/03/10 22:22:57;;;;;;;;;;;;;;;20.75;37.86;94021.59;10334550;28;1845;-68
2024/03/10 22:27:57;;;;;;;;;;;;;;;20.71;37.59;94033.13;10341293;28;1851;-70
2024/03/10 22:32:57;;;;;;;;;;;;;;;20.67;37.60;94040.84;10350146;28;1649;-69
2024/03/10 22:37:58;;;;;;;;;;;;;;;20.64;37.80;94043.34;10312578;28;1902;-69
2024/03/10 22:42:58;;;;;;;;;;;;;;;20.61;37.56;94039.47;10337211;28;2527;-70
2024/03/10 22:48:01;;;;;;;;;;;;;;;20.58;37.82;94042.75;10347687;28;1589;-69
2024/03/10 22:53:05;;;;;;;;;;;;;;;20.55;37.58;94040.72;10321180;28;1990;-70
2024/03/10 22:58:05;;;;;;;;;;;;;;;20.53;37.57;94048.16;10319529;28;1930;-70
2024/03/10 23:03:06;;;;;;;;;;;;;;;20.51;37.82;94057.47;10343225;27;1850;-69
2024/03/10 23:08:10;;;;;;;;;;;;;;;20.48;37.46;94068.63;10353284;27;2036;-69
2024/03/10 23:13:10;;;;;;;;;;;;;;;20.44;37.69;94076.38;10316877;28;1926;-69
2024/03/10 23:18:11;;;;;;;;;;;;;;;20.42;37.91;94070.66;10309733;28;1945;-70
2024/03/10 23:23:14;;;;;;;;;;;;;;;20.41;37.42;94082.25;10301957;28;2405;-72
2024/03/10 23:28:15;;;;;;;;;;;;;;;20.38;37.58;94080.22;10309895;28;1967;-70
2024/03/10 23:33:15;;;;;;;;;;;;;;;20.36;37.72;94087.66;10337376;28;1876;-69
2024/03/10 23:38:15;;;;;;;;;;;;;;;20.34;37.66;94089.09;10309753;28;1911;-68
2024/03/10 23:43:16;;;;;;;;;;;;;;;20.32;37.70;94092.00;10324625;28;2763;-69
2024/03/10 23:48:17;;;;;;;;;;;;;;;20.30;37.60;94096.81;10318254;28;2894;-69
2024/03/10 23:53:18;;;;;;;;;;;;;;;20.28;37.65;94102.38;10280441;28;2832;-69
2024/03/10 23:58:18;;;;;;;;;;;;;;;20.28;37.55;94104.22;10277512;28;2777;-69
